Terminal Aerodrome Forecast
Issued by NWS Wakefield, VA

Home | Current Version | Previous Version | Text Only | Print | Product List | Glossary On
Versions: 1 2 3 4 5 6 7 8 9 10 11 12 13 14 15 16
000
FTUS41 KAKQ 250543 RRA
TAFRIC
TAF
KRIC 250543Z 2506/2606 05004KT P6SM OVC200
     FM251200 07005KT P6SM BKN100
     FM251500 11005KT P6SM BKN050 OVC100
     FM251900 14004KT 4SM -RA BR SCT009 OVC020
     FM260000 07005KT 4SM -RA BR OVC005=

USA.gov is the U.S. government's official web portal to all federal, state and local government web resources and services.